Airfield :
LOGIN :

Register | Disclaimer

   EN    FR    IT 

 










Legend :    VFR   Marginal VFR   IFR   Intensive IFR   Very Intensive IFR
Visi :
Ceiling :
>= 8 km
>= 3000ft
5 to 8 km
1000 to 3000 ft
1500m to 5 km
500 to 1000 ft
800 to 1500m
200 to 500 ft
< 800m
< 200 ft
Symbols :   Thunderstorms  Fog  Heavy snow  Heavy precipitations  Wind > 20 kt
SIGMETs :     Misc.  Thunderstorms  Icing  Turbulence  Mountain Waves  Volcanic Ashes







- Airport Elevation : 1910 ft
- IATA code : RDZ
- Download approach charts


LFCR - Rodez

CURRENT METAR :
  • 162130Z AUTO 31008KT 9999 BKN013 BKN054 00/00 Q1023 TEMPO 1200 -SN OVC002

EXPIRED METARs :
  • 162100Z AUTO 31008KT 9999 FEW010 BKN015 BKN043 00/00 Q1023 TEMPO 3000 BR OVC003
  • 162030Z AUTO 31008KT 9999 FEW013 SCT040 BKN046 01/01 Q1023 TEMPO 3000 BR OVC003
  • 162000Z AUTO 32010KT 9999 FEW008 SCT013 OVC041 01/01 Q1023 TEMPO 3000 BR OVC003
  • 161930Z AUTO 31013KT 9999 BKN009 OVC041 01/01 Q1022 TEMPO 3000 BR OVC003

TAF AMD TAF LFCR
Valid from the 16 at 20:00 until the 17 at 18:00 UTC


162019Z 1620/1718 30010KT 9999 BKN015
BECMG 1620/1622 OVC006
PROB40
TEMPO 1621/1708 3000 BR OVC003
PROB30
TEMPO 1623/1706 1200 -SN OVC002
BECMG 1708/1710 BKN010
TEMPO 1710/1718 1200 -SN OVC002
No reported NOTAMs for that airfield.



MET'MAP, your aeronautical weather chart ! - Copyright ORBIFLY December 2007 - Disclaimer

ORBIFLY MET'MAP TEAM :

Programming & Development : Alexandra Zaïnal
Concept & Development : Baudouin d'Aumeries
Co-Development & Prog : Marc-Olivier Méhu
Technical & hardware support : Manuel Goepfert

Contact : metmap@orbifly.com




SOURCES & CREDITS :

   NOAA